Ana Sayfa
METAR-TAF:

METAR-TAF

Havaalanları :

Dallas / Fort Worth, Teksas, Amerika Birleşik Devletleri

Dallas/Fort Worth Uluslararası Havalimanı

Enlem: 32-53-49N, Boylam: 097-01-19W, yükseklik: 183 m

Güncel hava durumu gözlemi

Rapor saat 18:53 UTC de 1 saat ve 2 dakika önce yapıldı.
Rüzgar değişken yönden 3 kt
Sıcaklık -2°C
Nem 33%
Basınç 1039 hPa
Görüş mesafesi: 16.1 km
Açık gökyüzü

METAR: KDFW 171853Z VRB03KT 10SM CLR M02/M16 A3069 RMK AO2 SLP400 T10171161 $

Saat: 13:55 (19:55 UTC)

Tahmin

Rapor saat 17:35 UTC de 2 saat ve 20 dakika önce yapıldı.
Ayın 17'si saat 18 UTC'den ayın 18'si saat 24 UTC'ye kadar geçerli Tahmin
Rüzgar güneydan 6 kt
Görüş mesafesi: 10 km
Açık gökyüzü

TAF: KDFW 171735Z 1718/1824 17006KT P6SM SKC

4.000'den fazla havaalanı için hava durumu gözlemleri ve tahminleri (METAR ve TAF raporları).

Kullanılabilir istasyonlar harita üzerinde sarı ve kırmızı noktalarla gösterilir.

İstasyonun adını görmek için fareyi noktanın üzerinde gezdirin.

Sonrasında hava gözlem ve tahminlerini görmek için tıklayın.

Haritayı değiştirmek için: yaklaştırmak için siyah artı işaretli yeşil düğmeye ve uzaklaştırmak için de eksi işaretli düğmeye hızla tıklayın; bitişik haritalar için yeşil okları kullanın.


METAR-TAF: